sensor_id;sensor_type;location;lat;lon;timestamp;P1;durP1;ratioP1;P2;durP2;ratioP2
20181;SDS011;10250;50.756;6.172;2023-12-04T00:01:46;15.23;;;3.47;;
20181;SDS011;10250;50.756;6.172;2023-12-04T00:03:48;13.67;;;3.60;;
20181;SDS011;10250;50.756;6.172;2023-12-04T00:05:48;13.80;;;3.50;;
20181;SDS011;10250;50.756;6.172;2023-12-04T00:07:49;13.77;;;3.53;;
20181;SDS011;10250;50.756;6.172;2023-12-04T00:09:49;14.30;;;3.30;;
20181;SDS011;10250;50.756;6.172;2023-12-04T00:11:50;12.70;;;3.20;;
20181;SDS011;10250;50.756;6.172;2023-12-04T00:13:50;11.53;;;3.03;;
20181;SDS011;10250;50.756;6.172;2023-12-04T00:15:52;12.83;;;3.23;;
20181;SDS011;10250;50.756;6.172;2023-12-04T00:17:53;12.90;;;3.10;;
20181;SDS011;10250;50.756;6.172;2023-12-04T00:19:53;13.83;;;3.20;;
20181;SDS011;10250;50.756;6.172;2023-12-04T00:21:54;11.50;;;2.73;;
20181;SDS011;10250;50.756;6.172;2023-12-04T00:23:55;13.27;;;3.60;;
20181;SDS011;10250;50.756;6.172;2023-12-04T00:25:55;12.27;;;2.80;;
20181;SDS011;10250;50.756;6.172;2023-12-04T00:27:56;12.77;;;3.07;;
20181;SDS011;10250;50.756;6.172;2023-12-04T00:29:56;14.07;;;3.73;;
20181;SDS011;10250;50.756;6.172;2023-12-04T00:31:57;12.13;;;3.30;;
20181;SDS011;10250;50.756;6.172;2023-12-04T00:33:58;12.87;;;3.40;;
20181;SDS011;10250;50.756;6.172;2023-12-04T00:35:58;12.23;;;2.87;;
20181;SDS011;10250;50.756;6.172;2023-12-04T00:37:59;14.13;;;3.03;;
20181;SDS011;10250;50.756;6.172;2023-12-04T00:39:59;13.33;;;3.30;;
20181;SDS011;10250;50.756;6.172;2023-12-04T00:42:00;12.30;;;2.97;;
20181;SDS011;10250;50.756;6.172;2023-12-04T00:44:00;13.57;;;3.10;;
20181;SDS011;10250;50.756;6.172;2023-12-04T00:46:01;12.53;;;3.43;;
20181;SDS011;10250;50.756;6.172;2023-12-04T00:48:02;12.03;;;2.97;;
20181;SDS011;10250;50.756;6.172;2023-12-04T00:50:02;14.63;;;3.47;;
20181;SDS011;10250;50.756;6.172;2023-12-04T00:52:04;12.40;;;3.17;;
20181;SDS011;10250;50.756;6.172;2023-12-04T00:54:04;15.00;;;3.67;;
20181;SDS011;10250;50.756;6.172;2023-12-04T00:56:05;13.53;;;3.13;;
20181;SDS011;10250;50.756;6.172;2023-12-04T00:58:06;13.13;;;3.03;;
20181;SDS011;10250;50.756;6.172;2023-12-04T01:00:07;12.53;;;3.27;;
20181;SDS011;10250;50.756;6.172;2023-12-04T01:02:08;13.63;;;3.50;;
20181;SDS011;10250;50.756;6.172;2023-12-04T01:04:08;15.27;;;3.73;;
20181;SDS011;10250;50.756;6.172;2023-12-04T01:06:19;12.37;;;3.10;;
20181;SDS011;10250;50.756;6.172;2023-12-04T01:08:21;12.73;;;3.43;;
20181;SDS011;10250;50.756;6.172;2023-12-04T01:10:22;13.13;;;3.20;;
20181;SDS011;10250;50.756;6.172;2023-12-04T01:12:23;14.17;;;3.10;;
20181;SDS011;10250;50.756;6.172;2023-12-04T01:14:23;12.87;;;3.10;;
20181;SDS011;10250;50.756;6.172;2023-12-04T01:16:24;11.80;;;3.37;;
20181;SDS011;10250;50.756;6.172;2023-12-04T01:18:25;13.60;;;3.17;;
20181;SDS011;10250;50.756;6.172;2023-12-04T01:20:25;11.63;;;2.97;;
20181;SDS011;10250;50.756;6.172;2023-12-04T01:22:26;11.93;;;2.83;;
20181;SDS011;10250;50.756;6.172;2023-12-04T01:24:26;13.40;;;2.90;;
20181;SDS011;10250;50.756;6.172;2023-12-04T01:26:27;9.47;;;2.30;;
20181;SDS011;10250;50.756;6.172;2023-12-04T01:28:28;12.37;;;2.77;;
20181;SDS011;10250;50.756;6.172;2023-12-04T01:30:28;11.13;;;2.57;;
20181;SDS011;10250;50.756;6.172;2023-12-04T01:32:29;12.13;;;2.43;;
20181;SDS011;10250;50.756;6.172;2023-12-04T01:34:30;12.53;;;2.57;;
20181;SDS011;10250;50.756;6.172;2023-12-04T01:36:30;11.20;;;2.60;;
20181;SDS011;10250;50.756;6.172;2023-12-04T01:38:31;12.63;;;2.80;;
20181;SDS011;10250;50.756;6.172;2023-12-04T01:40:32;12.83;;;2.57;;
20181;SDS011;10250;50.756;6.172;2023-12-04T01:42:35;10.30;;;2.43;;
20181;SDS011;10250;50.756;6.172;2023-12-04T01:44:36;11.47;;;2.73;;
20181;SDS011;10250;50.756;6.172;2023-12-04T01:46:36;10.07;;;2.73;;
20181;SDS011;10250;50.756;6.172;2023-12-04T01:48:37;11.87;;;2.57;;
20181;SDS011;10250;50.756;6.172;2023-12-04T01:50:38;10.27;;;2.50;;
20181;SDS011;10250;50.756;6.172;2023-12-04T01:52:39;11.23;;;2.80;;
20181;SDS011;10250;50.756;6.172;2023-12-04T01:54:40;8.67;;;2.40;;
20181;SDS011;10250;50.756;6.172;2023-12-04T01:56:41;11.80;;;2.40;;
20181;SDS011;10250;50.756;6.172;2023-12-04T01:58:42;13.63;;;3.13;;
20181;SDS011;10250;50.756;6.172;2023-12-04T02:00:43;8.53;;;2.07;;
20181;SDS011;10250;50.756;6.172;2023-12-04T02:02:44;11.33;;;2.60;;
20181;SDS011;10250;50.756;6.172;2023-12-04T02:04:46;9.73;;;2.40;;
20181;SDS011;10250;50.756;6.172;2023-12-04T02:06:46;9.43;;;2.53;;
20181;SDS011;10250;50.756;6.172;2023-12-04T02:08:47;12.13;;;2.73;;
20181;SDS011;10250;50.756;6.172;2023-12-04T02:10:48;11.93;;;2.60;;
20181;SDS011;10250;50.756;6.172;2023-12-04T02:12:49;11.77;;;2.70;;
20181;SDS011;10250;50.756;6.172;2023-12-04T02:14:51;11.90;;;2.80;;
20181;SDS011;10250;50.756;6.172;2023-12-04T02:16:52;11.43;;;2.63;;
20181;SDS011;10250;50.756;6.172;2023-12-04T02:18:54;10.07;;;2.53;;
20181;SDS011;10250;50.756;6.172;2023-12-04T02:20:55;10.80;;;2.17;;
20181;SDS011;10250;50.756;6.172;2023-12-04T02:22:55;10.47;;;2.20;;
20181;SDS011;10250;50.756;6.172;2023-12-04T02:24:56;11.23;;;2.77;;
20181;SDS011;10250;50.756;6.172;2023-12-04T02:27:03;11.97;;;2.80;;
20181;SDS011;10250;50.756;6.172;2023-12-04T02:29:23;12.03;;;2.80;;
20181;SDS011;10250;50.756;6.172;2023-12-04T02:31:32;10.47;;;2.60;;
20181;SDS011;10250;50.756;6.172;2023-12-04T02:33:35;12.27;;;3.20;;
20181;SDS011;10250;50.756;6.172;2023-12-04T02:35:36;12.27;;;2.90;;
20181;SDS011;10250;50.756;6.172;2023-12-04T02:37:39;13.00;;;2.87;;
20181;SDS011;10250;50.756;6.172;2023-12-04T02:39:42;12.97;;;2.90;;
20181;SDS011;10250;50.756;6.172;2023-12-04T02:41:43;11.00;;;2.83;;
20181;SDS011;10250;50.756;6.172;2023-12-04T02:43:44;11.90;;;2.93;;
20181;SDS011;10250;50.756;6.172;2023-12-04T02:45:45;12.07;;;2.57;;
20181;SDS011;10250;50.756;6.172;2023-12-04T02:47:50;11.83;;;2.83;;
20181;SDS011;10250;50.756;6.172;2023-12-04T02:49:51;11.83;;;2.60;;
20181;SDS011;10250;50.756;6.172;2023-12-04T02:51:53;9.80;;;2.47;;
20181;SDS011;10250;50.756;6.172;2023-12-04T02:53:53;9.60;;;2.20;;
20181;SDS011;10250;50.756;6.172;2023-12-04T02:55:54;9.53;;;2.57;;
20181;SDS011;10250;50.756;6.172;2023-12-04T02:57:54;10.13;;;2.30;;
20181;SDS011;10250;50.756;6.172;2023-12-04T02:59:55;8.20;;;2.10;;
20181;SDS011;10250;50.756;6.172;2023-12-04T03:01:55;10.20;;;2.30;;
20181;SDS011;10250;50.756;6.172;2023-12-04T03:03:56;8.63;;;2.40;;
20181;SDS011;10250;50.756;6.172;2023-12-04T03:05:57;12.70;;;2.47;;
20181;SDS011;10250;50.756;6.172;2023-12-04T03:07:57;10.97;;;2.50;;
20181;SDS011;10250;50.756;6.172;2023-12-04T03:09:58;9.80;;;2.53;;
20181;SDS011;10250;50.756;6.172;2023-12-04T03:11:58;12.33;;;2.77;;
20181;SDS011;10250;50.756;6.172;2023-12-04T03:13:59;10.27;;;2.63;;
20181;SDS011;10250;50.756;6.172;2023-12-04T03:16:01;9.63;;;2.47;;
20181;SDS011;10250;50.756;6.172;2023-12-04T03:18:02;11.37;;;2.70;;
20181;SDS011;10250;50.756;6.172;2023-12-04T03:20:03;11.90;;;2.90;;
20181;SDS011;10250;50.756;6.172;2023-12-04T03:22:04;11.07;;;2.67;;
20181;SDS011;10250;50.756;6.172;2023-12-04T03:24:05;11.93;;;2.40;;
20181;SDS011;10250;50.756;6.172;2023-12-04T03:26:06;11.27;;;2.43;;
20181;SDS011;10250;50.756;6.172;2023-12-04T03:28:06;11.97;;;2.77;;
20181;SDS011;10250;50.756;6.172;2023-12-04T03:30:07;10.87;;;2.30;;
20181;SDS011;10250;50.756;6.172;2023-12-04T03:32:08;10.60;;;2.57;;
20181;SDS011;10250;50.756;6.172;2023-12-04T03:34:08;10.70;;;2.60;;
20181;SDS011;10250;50.756;6.172;2023-12-04T03:36:09;9.33;;;2.37;;
20181;SDS011;10250;50.756;6.172;2023-12-04T03:38:10;11.37;;;2.80;;
20181;SDS011;10250;50.756;6.172;2023-12-04T03:40:11;10.40;;;2.43;;
20181;SDS011;10250;50.756;6.172;2023-12-04T03:42:11;12.30;;;2.83;;
20181;SDS011;10250;50.756;6.172;2023-12-04T03:44:12;11.93;;;2.90;;
20181;SDS011;10250;50.756;6.172;2023-12-04T03:46:13;11.57;;;2.87;;
20181;SDS011;10250;50.756;6.172;2023-12-04T03:48:13;10.33;;;2.63;;
20181;SDS011;10250;50.756;6.172;2023-12-04T03:50:14;9.97;;;2.17;;
20181;SDS011;10250;50.756;6.172;2023-12-04T03:52:15;11.80;;;2.60;;
20181;SDS011;10250;50.756;6.172;2023-12-04T03:54:15;12.07;;;2.83;;
20181;SDS011;10250;50.756;6.172;2023-12-04T03:56:16;10.97;;;2.60;;
20181;SDS011;10250;50.756;6.172;2023-12-04T03:58:17;10.90;;;2.30;;
20181;SDS011;10250;50.756;6.172;2023-12-04T04:00:17;11.83;;;2.70;;
20181;SDS011;10250;50.756;6.172;2023-12-04T04:02:18;9.47;;;2.30;;
20181;SDS011;10250;50.756;6.172;2023-12-04T04:04:19;12.00;;;2.77;;
20181;SDS011;10250;50.756;6.172;2023-12-04T04:06:19;8.93;;;2.40;;
20181;SDS011;10250;50.756;6.172;2023-12-04T04:08:20;11.63;;;2.70;;
20181;SDS011;10250;50.756;6.172;2023-12-04T04:10:20;10.87;;;2.53;;
20181;SDS011;10250;50.756;6.172;2023-12-04T04:12:21;9.83;;;2.60;;
20181;SDS011;10250;50.756;6.172;2023-12-04T04:14:21;9.73;;;2.43;;
20181;SDS011;10250;50.756;6.172;2023-12-04T04:16:23;9.63;;;2.77;;
20181;SDS011;10250;50.756;6.172;2023-12-04T04:18:23;9.87;;;2.57;;
20181;SDS011;10250;50.756;6.172;2023-12-04T04:20:24;10.10;;;2.63;;
20181;SDS011;10250;50.756;6.172;2023-12-04T04:22:25;9.10;;;2.77;;
20181;SDS011;10250;50.756;6.172;2023-12-04T04:24:25;9.23;;;2.30;;
20181;SDS011;10250;50.756;6.172;2023-12-04T04:26:26;13.23;;;2.53;;
20181;SDS011;10250;50.756;6.172;2023-12-04T04:28:26;9.40;;;2.10;;
20181;SDS011;10250;50.756;6.172;2023-12-04T04:30:27;9.23;;;2.20;;
20181;SDS011;10250;50.756;6.172;2023-12-04T04:32:27;9.60;;;2.10;;
20181;SDS011;10250;50.756;6.172;2023-12-04T04:34:28;10.80;;;2.30;;
20181;SDS011;10250;50.756;6.172;2023-12-04T04:36:28;9.30;;;2.30;;
20181;SDS011;10250;50.756;6.172;2023-12-04T04:38:29;11.13;;;2.40;;
20181;SDS011;10250;50.756;6.172;2023-12-04T04:40:30;8.17;;;2.17;;
20181;SDS011;10250;50.756;6.172;2023-12-04T04:42:30;9.47;;;2.40;;
20181;SDS011;10250;50.756;6.172;2023-12-04T04:44:31;9.00;;;2.10;;
20181;SDS011;10250;50.756;6.172;2023-12-04T04:46:31;11.90;;;2.47;;
20181;SDS011;10250;50.756;6.172;2023-12-04T04:48:32;10.57;;;2.30;;
20181;SDS011;10250;50.756;6.172;2023-12-04T04:50:32;8.23;;;2.30;;
20181;SDS011;10250;50.756;6.172;2023-12-04T04:52:33;8.43;;;2.07;;
20181;SDS011;10250;50.756;6.172;2023-12-04T04:54:33;13.53;;;3.00;;
20181;SDS011;10250;50.756;6.172;2023-12-04T04:56:34;7.57;;;2.00;;
20181;SDS011;10250;50.756;6.172;2023-12-04T04:58:35;9.13;;;2.33;;
20181;SDS011;10250;50.756;6.172;2023-12-04T05:00:35;11.53;;;2.63;;
20181;SDS011;10250;50.756;6.172;2023-12-04T05:02:36;7.93;;;1.90;;
20181;SDS011;10250;50.756;6.172;2023-12-04T05:04:36;9.23;;;2.20;;
20181;SDS011;10250;50.756;6.172;2023-12-04T05:06:37;10.13;;;2.37;;
20181;SDS011;10250;50.756;6.172;2023-12-04T05:08:38;9.10;;;2.40;;
20181;SDS011;10250;50.756;6.172;2023-12-04T05:10:38;10.10;;;2.40;;
20181;SDS011;10250;50.756;6.172;2023-12-04T05:12:39;12.30;;;2.57;;
20181;SDS011;10250;50.756;6.172;2023-12-04T05:14:40;9.97;;;2.67;;
20181;SDS011;10250;50.756;6.172;2023-12-04T05:16:40;10.20;;;2.27;;
20181;SDS011;10250;50.756;6.172;2023-12-04T05:18:41;10.57;;;2.40;;
20181;SDS011;10250;50.756;6.172;2023-12-04T05:20:41;9.20;;;2.30;;
20181;SDS011;10250;50.756;6.172;2023-12-04T05:22:42;10.20;;;2.13;;
20181;SDS011;10250;50.756;6.172;2023-12-04T05:24:43;8.83;;;2.37;;
20181;SDS011;10250;50.756;6.172;2023-12-04T05:26:43;10.57;;;2.20;;
20181;SDS011;10250;50.756;6.172;2023-12-04T05:28:44;8.60;;;2.07;;
20181;SDS011;10250;50.756;6.172;2023-12-04T05:30:44;8.67;;;2.10;;
20181;SDS011;10250;50.756;6.172;2023-12-04T05:32:45;8.30;;;1.83;;
20181;SDS011;10250;50.756;6.172;2023-12-04T05:34:45;9.33;;;2.20;;
20181;SDS011;10250;50.756;6.172;2023-12-04T05:36:46;8.30;;;1.90;;
20181;SDS011;10250;50.756;6.172;2023-12-04T05:38:46;9.47;;;2.10;;
20181;SDS011;10250;50.756;6.172;2023-12-04T05:40:47;9.37;;;2.10;;
20181;SDS011;10250;50.756;6.172;2023-12-04T05:42:48;7.77;;;2.00;;
20181;SDS011;10250;50.756;6.172;2023-12-04T05:44:49;9.03;;;2.10;;
20181;SDS011;10250;50.756;6.172;2023-12-04T05:46:49;9.50;;;2.30;;
20181;SDS011;10250;50.756;6.172;2023-12-04T05:48:50;7.33;;;2.07;;
20181;SDS011;10250;50.756;6.172;2023-12-04T05:50:50;10.37;;;2.27;;
20181;SDS011;10250;50.756;6.172;2023-12-04T05:52:51;7.87;;;2.00;;
20181;SDS011;10250;50.756;6.172;2023-12-04T05:54:52;4.80;;;1.43;;
20181;SDS011;10250;50.756;6.172;2023-12-04T05:56:52;7.03;;;1.87;;
20181;SDS011;10250;50.756;6.172;2023-12-04T05:58:53;7.77;;;1.83;;
20181;SDS011;10250;50.756;6.172;2023-12-04T06:00:53;9.40;;;1.93;;
20181;SDS011;10250;50.756;6.172;2023-12-04T06:02:54;7.07;;;1.80;;
20181;SDS011;10250;50.756;6.172;2023-12-04T06:04:54;7.33;;;1.73;;
20181;SDS011;10250;50.756;6.172;2023-12-04T06:06:55;5.63;;;1.60;;
20181;SDS011;10250;50.756;6.172;2023-12-04T06:08:55;7.40;;;1.70;;
20181;SDS011;10250;50.756;6.172;2023-12-04T06:10:56;3.97;;;1.40;;
20181;SDS011;10250;50.756;6.172;2023-12-04T06:12:57;8.43;;;1.60;;
20181;SDS011;10250;50.756;6.172;2023-12-04T06:14:58;6.27;;;1.30;;
20181;SDS011;10250;50.756;6.172;2023-12-04T06:16:59;5.80;;;1.60;;
20181;SDS011;10250;50.756;6.172;2023-12-04T06:18:59;6.27;;;1.60;;
20181;SDS011;10250;50.756;6.172;2023-12-04T06:21:00;4.43;;;1.43;;
20181;SDS011;10250;50.756;6.172;2023-12-04T06:23:00;4.87;;;1.27;;
20181;SDS011;10250;50.756;6.172;2023-12-04T06:25:01;6.07;;;1.40;;
20181;SDS011;10250;50.756;6.172;2023-12-04T06:27:03;6.60;;;1.53;;
20181;SDS011;10250;50.756;6.172;2023-12-04T06:29:05;6.97;;;1.33;;
20181;SDS011;10250;50.756;6.172;2023-12-04T06:31:06;5.63;;;1.30;;
20181;SDS011;10250;50.756;6.172;2023-12-04T06:33:07;3.17;;;1.10;;
20181;SDS011;10250;50.756;6.172;2023-12-04T06:35:08;5.07;;;1.43;;
20181;SDS011;10250;50.756;6.172;2023-12-04T06:37:12;6.03;;;1.40;;
20181;SDS011;10250;50.756;6.172;2023-12-04T06:39:13;6.33;;;1.60;;
20181;SDS011;10250;50.756;6.172;2023-12-04T06:41:17;5.53;;;1.20;;
20181;SDS011;10250;50.756;6.172;2023-12-04T06:43:18;4.17;;;1.30;;
20181;SDS011;10250;50.756;6.172;2023-12-04T06:45:19;7.40;;;1.50;;
20181;SDS011;10250;50.756;6.172;2023-12-04T06:47:22;3.60;;;1.37;;
20181;SDS011;10250;50.756;6.172;2023-12-04T06:49:23;3.93;;;1.10;;
20181;SDS011;10250;50.756;6.172;2023-12-04T06:51:27;4.97;;;1.37;;
20181;SDS011;10250;50.756;6.172;2023-12-04T06:53:28;2.80;;;1.00;;
20181;SDS011;10250;50.756;6.172;2023-12-04T06:55:28;5.43;;;1.37;;
20181;SDS011;10250;50.756;6.172;2023-12-04T06:57:29;6.07;;;1.30;;
20181;SDS011;10250;50.756;6.172;2023-12-04T06:59:29;3.57;;;1.10;;
20181;SDS011;10250;50.756;6.172;2023-12-04T07:01:30;3.97;;;1.23;;
20181;SDS011;10250;50.756;6.172;2023-12-04T07:03:30;4.80;;;1.20;;
20181;SDS011;10250;50.756;6.172;2023-12-04T07:05:31;2.10;;;1.07;;
20181;SDS011;10250;50.756;6.172;2023-12-04T07:07:32;2.50;;;1.00;;
20181;SDS011;10250;50.756;6.172;2023-12-04T07:09:32;3.70;;;1.00;;
20181;SDS011;10250;50.756;6.172;2023-12-04T07:11:36;2.47;;;0.90;;
20181;SDS011;10250;50.756;6.172;2023-12-04T07:13:37;4.07;;;1.10;;
20181;SDS011;10250;50.756;6.172;2023-12-04T07:15:38;3.93;;;1.10;;
20181;SDS011;10250;50.756;6.172;2023-12-04T07:17:39;3.30;;;0.80;;
20181;SDS011;10250;50.756;6.172;2023-12-04T07:19:41;2.93;;;0.90;;
20181;SDS011;10250;50.756;6.172;2023-12-04T07:21:42;6.07;;;1.33;;
20181;SDS011;10250;50.756;6.172;2023-12-04T07:23:42;2.93;;;0.90;;
20181;SDS011;10250;50.756;6.172;2023-12-04T07:25:43;3.50;;;1.00;;
20181;SDS011;10250;50.756;6.172;2023-12-04T07:27:43;4.17;;;1.10;;
20181;SDS011;10250;50.756;6.172;2023-12-04T07:29:44;3.10;;;1.10;;
20181;SDS011;10250;50.756;6.172;2023-12-04T07:31:45;3.67;;;1.10;;
20181;SDS011;10250;50.756;6.172;2023-12-04T07:33:46;4.97;;;1.23;;
20181;SDS011;10250;50.756;6.172;2023-12-04T07:35:46;4.20;;;1.20;;
20181;SDS011;10250;50.756;6.172;2023-12-04T07:37:47;6.80;;;1.50;;
20181;SDS011;10250;50.756;6.172;2023-12-04T07:39:47;5.20;;;1.37;;
20181;SDS011;10250;50.756;6.172;2023-12-04T07:41:48;8.07;;;1.57;;
20181;SDS011;10250;50.756;6.172;2023-12-04T07:43:48;7.20;;;1.70;;
20181;SDS011;10250;50.756;6.172;2023-12-04T07:45:49;3.97;;;1.20;;
20181;SDS011;10250;50.756;6.172;2023-12-04T07:47:50;3.90;;;1.30;;
20181;SDS011;10250;50.756;6.172;2023-12-04T07:49:50;3.83;;;1.20;;
20181;SDS011;10250;50.756;6.172;2023-12-04T07:51:51;6.07;;;1.50;;
20181;SDS011;10250;50.756;6.172;2023-12-04T07:53:51;4.37;;;1.23;;
20181;SDS011;10250;50.756;6.172;2023-12-04T07:55:52;5.03;;;1.40;;
20181;SDS011;10250;50.756;6.172;2023-12-04T07:57:53;5.13;;;1.40;;
20181;SDS011;10250;50.756;6.172;2023-12-04T07:59:54;6.43;;;1.70;;
20181;SDS011;10250;50.756;6.172;2023-12-04T08:01:54;7.83;;;1.80;;
20181;SDS011;10250;50.756;6.172;2023-12-04T08:03:55;7.77;;;1.67;;
20181;SDS011;10250;50.756;6.172;2023-12-04T08:05:55;6.30;;;1.83;;
20181;SDS011;10250;50.756;6.172;2023-12-04T08:07:56;3.93;;;1.27;;
20181;SDS011;10250;50.756;6.172;2023-12-04T08:09:57;6.20;;;1.53;;
20181;SDS011;10250;50.756;6.172;2023-12-04T08:11:58;5.83;;;1.50;;
20181;SDS011;10250;50.756;6.172;2023-12-04T08:13:59;6.37;;;1.47;;
20181;SDS011;10250;50.756;6.172;2023-12-04T08:15:59;7.00;;;1.77;;
20181;SDS011;10250;50.756;6.172;2023-12-04T08:18:00;8.80;;;1.87;;
20181;SDS011;10250;50.756;6.172;2023-12-04T08:20:01;8.70;;;2.00;;
20181;SDS011;10250;50.756;6.172;2023-12-04T08:22:02;7.33;;;2.03;;
20181;SDS011;10250;50.756;6.172;2023-12-04T08:24:02;8.27;;;1.87;;
20181;SDS011;10250;50.756;6.172;2023-12-04T08:26:03;7.73;;;1.80;;
20181;SDS011;10250;50.756;6.172;2023-12-04T08:28:04;10.07;;;2.50;;
20181;SDS011;10250;50.756;6.172;2023-12-04T08:30:06;9.03;;;2.10;;
20181;SDS011;10250;50.756;6.172;2023-12-04T08:32:07;9.60;;;2.10;;
20181;SDS011;10250;50.756;6.172;2023-12-04T08:34:07;9.77;;;2.30;;
20181;SDS011;10250;50.756;6.172;2023-12-04T08:36:08;9.03;;;2.00;;
20181;SDS011;10250;50.756;6.172;2023-12-04T08:38:10;9.80;;;2.40;;
20181;SDS011;10250;50.756;6.172;2023-12-04T08:40:11;9.80;;;2.30;;
20181;SDS011;10250;50.756;6.172;2023-12-04T08:42:11;8.70;;;2.17;;
20181;SDS011;10250;50.756;6.172;2023-12-04T08:44:13;8.27;;;2.27;;
20181;SDS011;10250;50.756;6.172;2023-12-04T08:46:14;9.07;;;2.50;;
20181;SDS011;10250;50.756;6.172;2023-12-04T08:48:14;9.33;;;2.40;;
20181;SDS011;10250;50.756;6.172;2023-12-04T08:50:15;10.30;;;2.57;;
20181;SDS011;10250;50.756;6.172;2023-12-04T08:52:16;13.47;;;2.43;;
20181;SDS011;10250;50.756;6.172;2023-12-04T08:54:17;9.00;;;2.27;;
20181;SDS011;10250;50.756;6.172;2023-12-04T08:56:18;9.57;;;2.20;;
20181;SDS011;10250;50.756;6.172;2023-12-04T08:58:18;9.73;;;2.40;;
20181;SDS011;10250;50.756;6.172;2023-12-04T09:00:19;9.43;;;2.30;;
20181;SDS011;10250;50.756;6.172;2023-12-04T09:02:19;9.70;;;2.60;;
20181;SDS011;10250;50.756;6.172;2023-12-04T09:04:20;12.90;;;2.70;;
20181;SDS011;10250;50.756;6.172;2023-12-04T09:06:21;10.63;;;2.67;;
20181;SDS011;10250;50.756;6.172;2023-12-04T09:08:22;12.03;;;2.77;;
20181;SDS011;10250;50.756;6.172;2023-12-04T09:10:25;12.77;;;2.70;;
20181;SDS011;10250;50.756;6.172;2023-12-04T09:12:26;11.87;;;3.07;;
20181;SDS011;10250;50.756;6.172;2023-12-04T09:14:26;11.50;;;3.10;;
20181;SDS011;10250;50.756;6.172;2023-12-04T09:16:28;10.27;;;2.83;;
20181;SDS011;10250;50.756;6.172;2023-12-04T09:18:28;8.90;;;2.27;;
20181;SDS011;10250;50.756;6.172;2023-12-04T09:20:29;10.57;;;2.60;;
20181;SDS011;10250;50.756;6.172;2023-12-04T09:22:29;8.77;;;2.30;;
20181;SDS011;10250;50.756;6.172;2023-12-04T09:24:30;10.47;;;2.90;;
20181;SDS011;10250;50.756;6.172;2023-12-04T09:26:31;11.73;;;2.87;;
20181;SDS011;10250;50.756;6.172;2023-12-04T09:28:31;11.23;;;2.70;;
20181;SDS011;10250;50.756;6.172;2023-12-04T09:30:33;10.33;;;2.60;;
20181;SDS011;10250;50.756;6.172;2023-12-04T09:32:35;9.63;;;2.73;;
20181;SDS011;10250;50.756;6.172;2023-12-04T09:34:36;10.77;;;2.67;;
20181;SDS011;10250;50.756;6.172;2023-12-04T09:36:37;10.03;;;2.80;;
20181;SDS011;10250;50.756;6.172;2023-12-04T09:38:38;13.60;;;3.07;;
20181;SDS011;10250;50.756;6.172;2023-12-04T09:40:39;11.23;;;2.90;;
20181;SDS011;10250;50.756;6.172;2023-12-04T09:42:39;9.37;;;2.60;;
20181;SDS011;10250;50.756;6.172;2023-12-04T09:44:40;11.43;;;2.67;;
20181;SDS011;10250;50.756;6.172;2023-12-04T09:46:41;12.50;;;3.03;;
20181;SDS011;10250;50.756;6.172;2023-12-04T09:48:43;11.97;;;3.10;;
20181;SDS011;10250;50.756;6.172;2023-12-04T09:50:46;13.00;;;3.10;;
20181;SDS011;10250;50.756;6.172;2023-12-04T09:52:51;11.57;;;2.90;;
20181;SDS011;10250;50.756;6.172;2023-12-04T09:54:52;15.53;;;3.43;;
20181;SDS011;10250;50.756;6.172;2023-12-04T09:56:53;10.37;;;3.07;;
20181;SDS011;10250;50.756;6.172;2023-12-04T09:58:57;13.13;;;3.10;;
20181;SDS011;10250;50.756;6.172;2023-12-04T10:01:02;12.00;;;3.00;;
20181;SDS011;10250;50.756;6.172;2023-12-04T10:03:04;12.50;;;3.07;;
20181;SDS011;10250;50.756;6.172;2023-12-04T10:05:04;13.03;;;3.30;;
20181;SDS011;10250;50.756;6.172;2023-12-04T10:07:06;9.43;;;2.67;;
20181;SDS011;10250;50.756;6.172;2023-12-04T10:09:06;13.47;;;3.07;;
20181;SDS011;10250;50.756;6.172;2023-12-04T10:11:14;12.07;;;3.10;;
20181;SDS011;10250;50.756;6.172;2023-12-04T10:13:14;11.67;;;2.97;;
20181;SDS011;10250;50.756;6.172;2023-12-04T10:15:15;11.10;;;3.00;;
20181;SDS011;10250;50.756;6.172;2023-12-04T10:17:16;11.40;;;3.00;;
20181;SDS011;10250;50.756;6.172;2023-12-04T10:21:32;12.57;;;3.23;;
20181;SDS011;10250;50.756;6.172;2023-12-04T10:23:51;10.23;;;2.60;;
20181;SDS011;10250;50.756;6.172;2023-12-04T10:25:51;11.97;;;2.93;;
20181;SDS011;10250;50.756;6.172;2023-12-04T10:27:52;13.97;;;3.00;;
20181;SDS011;10250;50.756;6.172;2023-12-04T10:29:57;12.77;;;3.50;;
20181;SDS011;10250;50.756;6.172;2023-12-04T10:31:58;13.60;;;3.27;;
20181;SDS011;10250;50.756;6.172;2023-12-04T10:34:01;11.97;;;3.30;;
20181;SDS011;10250;50.756;6.172;2023-12-04T10:36:04;12.40;;;3.17;;
20181;SDS011;10250;50.756;6.172;2023-12-04T10:38:12;10.40;;;2.90;;
20181;SDS011;10250;50.756;6.172;2023-12-04T10:40:22;12.73;;;3.27;;
20181;SDS011;10250;50.756;6.172;2023-12-04T10:42:26;11.00;;;3.03;;
20181;SDS011;10250;50.756;6.172;2023-12-04T10:44:28;13.13;;;3.00;;
20181;SDS011;10250;50.756;6.172;2023-12-04T10:46:31;11.87;;;3.07;;
20181;SDS011;10250;50.756;6.172;2023-12-04T10:48:35;12.37;;;3.13;;
20181;SDS011;10250;50.756;6.172;2023-12-04T10:50:37;11.53;;;3.00;;
20181;SDS011;10250;50.756;6.172;2023-12-04T10:52:38;12.07;;;3.20;;
20181;SDS011;10250;50.756;6.172;2023-12-04T10:54:40;12.80;;;3.53;;
20181;SDS011;10250;50.756;6.172;2023-12-04T10:56:41;13.33;;;3.57;;
20181;SDS011;10250;50.756;6.172;2023-12-04T10:58:45;10.77;;;3.13;;
20181;SDS011;10250;50.756;6.172;2023-12-04T11:00:50;15.13;;;3.40;;
20181;SDS011;10250;50.756;6.172;2023-12-04T11:02:55;13.10;;;3.67;;
20181;SDS011;10250;50.756;6.172;2023-12-04T11:05:05;13.00;;;3.30;;
20181;SDS011;10250;50.756;6.172;2023-12-04T11:07:13;13.83;;;3.27;;
20181;SDS011;10250;50.756;6.172;2023-12-04T11:09:15;12.57;;;3.33;;
20181;SDS011;10250;50.756;6.172;2023-12-04T11:11:26;10.90;;;3.10;;
20181;SDS011;10250;50.756;6.172;2023-12-04T11:13:32;12.70;;;3.00;;
20181;SDS011;10250;50.756;6.172;2023-12-04T11:15:40;13.00;;;3.10;;
20181;SDS011;10250;50.756;6.172;2023-12-04T11:17:42;13.10;;;3.20;;
20181;SDS011;10250;50.756;6.172;2023-12-04T11:19:55;12.70;;;2.77;;
20181;SDS011;10250;50.756;6.172;2023-12-04T11:22:13;11.30;;;2.90;;
20181;SDS011;10250;50.756;6.172;2023-12-04T11:24:16;11.20;;;2.83;;
20181;SDS011;10250;50.756;6.172;2023-12-04T11:26:18;12.53;;;2.90;;
20181;SDS011;10250;50.756;6.172;2023-12-04T11:28:19;11.17;;;2.80;;
20181;SDS011;10250;50.756;6.172;2023-12-04T11:30:21;11.93;;;3.20;;
20181;SDS011;10250;50.756;6.172;2023-12-04T11:32:22;17.20;;;3.57;;
20181;SDS011;10250;50.756;6.172;2023-12-04T11:34:27;13.00;;;3.20;;
20181;SDS011;10250;50.756;6.172;2023-12-04T11:36:31;9.83;;;2.63;;
20181;SDS011;10250;50.756;6.172;2023-12-04T11:38:33;12.13;;;3.10;;
20181;SDS011;10250;50.756;6.172;2023-12-04T11:40:36;10.60;;;2.57;;
20181;SDS011;10250;50.756;6.172;2023-12-04T11:42:37;9.13;;;2.47;;
20181;SDS011;10250;50.756;6.172;2023-12-04T11:44:42;9.93;;;2.63;;
20181;SDS011;10250;50.756;6.172;2023-12-04T11:53:47;11.77;;;2.90;;
20181;SDS011;10250;50.756;6.172;2023-12-04T11:55:48;12.03;;;2.77;;
20181;SDS011;10250;50.756;6.172;2023-12-04T11:57:49;9.87;;;2.50;;
20181;SDS011;10250;50.756;6.172;2023-12-04T11:59:51;9.83;;;2.57;;
20181;SDS011;10250;50.756;6.172;2023-12-04T12:01:55;9.07;;;2.20;;
20181;SDS011;10250;50.756;6.172;2023-12-04T12:03:58;9.50;;;2.37;;
20181;SDS011;10250;50.756;6.172;2023-12-04T12:05:59;9.27;;;2.40;;
20181;SDS011;10250;50.756;6.172;2023-12-04T12:08:01;10.63;;;2.33;;
20181;SDS011;10250;50.756;6.172;2023-12-04T12:10:05;11.37;;;2.63;;
20181;SDS011;10250;50.756;6.172;2023-12-04T12:12:06;10.87;;;2.60;;
20181;SDS011;10250;50.756;6.172;2023-12-04T12:14:08;9.97;;;2.40;;
20181;SDS011;10250;50.756;6.172;2023-12-04T12:16:09;11.60;;;2.80;;